createdAt,value
2022-09-21T00:01:42.397Z,7.40
2022-09-21T00:04:09.330Z,7.30
2022-09-21T00:06:37.290Z,7.30
2022-09-21T00:09:05.154Z,7.30
2022-09-21T00:11:32.356Z,7.20
2022-09-21T00:14:01.215Z,7.20
2022-09-21T00:16:28.376Z,7.10
2022-09-21T00:18:55.390Z,7.10
2022-09-21T00:21:22.182Z,7.10
2022-09-21T00:23:49.226Z,7.10
2022-09-21T00:26:17.532Z,7.10
2022-09-21T00:28:44.640Z,7.10
2022-09-21T00:31:13.284Z,7.10
2022-09-21T00:33:40.915Z,7.10
2022-09-21T00:36:08.936Z,7.10
2022-09-21T00:38:36.062Z,7.10
2022-09-21T00:41:03.501Z,7.10
2022-09-21T00:43:32.790Z,7.10
2022-09-21T00:46:08.285Z,7.10
2022-09-21T00:48:35.085Z,7.10
2022-09-21T00:51:04.322Z,7.10
2022-09-21T00:53:32.121Z,7.10
2022-09-21T00:55:59.222Z,7.00
2022-09-21T00:58:43.864Z,7.00
2022-09-21T01:01:11.960Z,7.00
2022-09-21T01:03:39.185Z,6.90
2022-09-21T01:06:05.996Z,6.90
2022-09-21T01:08:34.267Z,6.90
2022-09-21T01:11:19.770Z,6.90
2022-09-21T01:13:52.617Z,6.90
2022-09-21T01:16:21.795Z,6.90
2022-09-21T01:19:10.640Z,6.80
2022-09-21T01:21:43.664Z,6.80
2022-09-21T01:24:30.848Z,6.80
2022-09-21T01:27:21.996Z,6.90
2022-09-21T01:29:48.778Z,6.90
2022-09-21T01:32:20.795Z,6.90
2022-09-21T01:34:55.475Z,6.90
2022-09-21T01:37:24.348Z,6.80
2022-09-21T01:39:54.151Z,6.80
2022-09-21T01:42:21.492Z,6.80
2022-09-21T01:44:49.345Z,6.70
2022-09-21T01:47:17.059Z,6.70
2022-09-21T01:49:46.439Z,6.70
2022-09-21T01:52:21.838Z,6.70
2022-09-21T01:54:51.718Z,6.70
2022-09-21T01:57:26.181Z,6.70
2022-09-21T01:59:54.678Z,6.70
2022-09-21T02:02:41.489Z,6.70
2022-09-21T02:05:08.378Z,6.70
2022-09-21T02:07:35.699Z,6.70
2022-09-21T02:10:03.015Z,6.70
2022-09-21T02:12:33.135Z,6.70
2022-09-21T02:15:00.726Z,6.70
2022-09-21T02:17:27.348Z,6.70
2022-09-21T02:20:18.503Z,6.70
2022-09-21T02:22:59.902Z,6.70
2022-09-21T02:25:43.767Z,6.70
2022-09-21T02:28:30.670Z,6.60
2022-09-21T02:31:02.343Z,6.70
2022-09-21T02:33:32.793Z,6.70
2022-09-21T02:36:08.401Z,6.60
2022-09-21T02:38:47.495Z,6.60
2022-09-21T02:41:16.945Z,6.60
2022-09-21T02:43:46.725Z,6.60
2022-09-21T02:46:15.995Z,6.60
2022-09-21T02:48:53.845Z,6.60
2022-09-21T02:51:27.656Z,6.50
2022-09-21T02:53:54.876Z,6.50
2022-09-21T02:56:21.827Z,6.50
2022-09-21T02:58:54.371Z,6.50
2022-09-21T03:01:22.013Z,6.40
2022-09-21T03:03:49.063Z,6.40
2022-09-21T03:06:15.906Z,6.50
2022-09-21T03:08:42.496Z,6.50
2022-09-21T03:11:10.800Z,6.50
2022-09-21T03:13:37.563Z,6.50
2022-09-21T03:16:06.268Z,6.50
2022-09-21T03:18:33.281Z,6.50
2022-09-21T03:21:00.227Z,6.50
2022-09-21T03:23:26.837Z,6.60
2022-09-21T03:25:54.804Z,6.60
2022-09-21T03:28:21.981Z,6.60
2022-09-21T03:30:49.509Z,6.50
2022-09-21T03:33:16.630Z,6.50
2022-09-21T03:35:43.690Z,6.50
2022-09-21T03:38:10.598Z,6.50
2022-09-21T03:40:37.685Z,6.50
2022-09-21T03:43:04.351Z,6.50
2022-09-21T03:45:30.972Z,6.50
2022-09-21T03:47:58.668Z,6.50
2022-09-21T03:50:26.634Z,6.50
2022-09-21T03:52:53.289Z,6.50
2022-09-21T03:55:19.971Z,6.50
2022-09-21T03:57:46.667Z,6.50
2022-09-21T04:00:13.633Z,6.50
2022-09-21T04:02:40.692Z,6.40
2022-09-21T04:05:08.972Z,6.40
2022-09-21T04:07:36.007Z,6.40
2022-09-21T04:10:06.129Z,6.40
2022-09-21T04:12:34.596Z,6.40
2022-09-21T04:15:01.648Z,6.30
2022-09-21T04:17:28.421Z,6.30
2022-09-21T04:19:55.046Z,6.30
2022-09-21T04:22:21.647Z,6.30
2022-09-21T04:24:48.237Z,6.30
2022-09-21T04:27:14.776Z,6.20
2022-09-21T04:29:41.799Z,6.20
2022-09-21T04:32:08.427Z,6.10
2022-09-21T04:34:35.087Z,6.10
2022-09-21T04:37:01.792Z,6.10
2022-09-21T04:39:28.400Z,6.10
2022-09-21T04:41:54.998Z,6.10
2022-09-21T04:44:21.718Z,6.10
2022-09-21T04:46:48.667Z,6.10
2022-09-21T04:49:15.259Z,6.10
2022-09-21T04:51:41.892Z,6.10
2022-09-21T04:54:08.503Z,6.10
2022-09-21T04:56:35.135Z,6.10
2022-09-21T04:59:01.759Z,6.10
2022-09-21T05:01:28.845Z,6.10
2022-09-21T05:03:55.627Z,6.10
2022-09-21T05:06:22.255Z,6.20
2022-09-21T05:09:07.732Z,6.20
2022-09-21T05:11:34.529Z,6.20
2022-09-21T05:14:01.247Z,6.30
2022-09-21T05:16:27.926Z,6.30
2022-09-21T05:18:57.660Z,6.30
2022-09-21T05:21:24.578Z,6.40
2022-09-21T05:23:51.189Z,6.40
2022-09-21T05:26:18.058Z,6.40
2022-09-21T05:28:44.793Z,6.50
2022-09-21T05:31:18.431Z,6.60
2022-09-21T05:34:12.096Z,6.80
2022-09-21T05:36:56.643Z,7.10
2022-09-21T05:39:23.352Z,7.50
2022-09-21T05:41:50.165Z,7.90
2022-09-21T05:44:17.190Z,8.30
2022-09-21T05:46:56.210Z,8.60
2022-09-21T05:49:23.296Z,8.90
2022-09-21T05:52:10.181Z,9.40
2022-09-21T05:54:57.915Z,9.60
2022-09-21T05:57:30.841Z,10.00
2022-09-21T06:00:07.416Z,10.40
2022-09-21T06:02:38.896Z,10.60
2022-09-21T06:05:10.132Z,10.90
2022-09-21T06:07:37.069Z,11.10
2022-09-21T06:10:04.003Z,11.30
2022-09-21T06:12:30.672Z,11.50
2022-09-21T06:14:57.302Z,11.80
2022-09-21T06:17:27.316Z,12.00
2022-09-21T06:19:54.020Z,12.20
2022-09-21T06:22:20.624Z,12.50
2022-09-21T06:24:47.229Z,12.80
2022-09-21T06:27:13.881Z,13.10
2022-09-21T06:29:40.582Z,13.50
2022-09-21T06:32:07.319Z,13.90
2022-09-21T06:34:34.121Z,14.30
2022-09-21T06:37:00.759Z,14.60
2022-09-21T06:39:27.345Z,14.90
2022-09-21T06:41:53.955Z,15.10
2022-09-21T06:44:22.118Z,15.30
2022-09-21T06:46:48.787Z,15.60
2022-09-21T06:49:15.353Z,15.80
2022-09-21T06:51:43.055Z,16.00
2022-09-21T06:54:09.817Z,16.10
2022-09-21T06:56:36.600Z,16.20
2022-09-21T06:59:03.247Z,16.40
2022-09-21T07:01:29.949Z,16.60
2022-09-21T07:03:56.819Z,16.80
2022-09-21T07:06:23.465Z,17.00
2022-09-21T07:11:42.015Z,17.40
2022-09-21T07:14:08.717Z,17.70
2022-09-21T07:16:36.084Z,18.10
2022-09-21T07:19:11.117Z,18.50
2022-09-21T07:21:38.383Z,18.80
2022-09-21T07:24:09.518Z,19.10
2022-09-21T07:26:37.803Z,19.40
2022-09-21T07:29:04.761Z,19.70
2022-09-21T07:31:31.655Z,20.30
2022-09-21T07:33:59.080Z,20.80
2022-09-21T07:36:25.880Z,21.00
2022-09-21T07:38:53.464Z,21.20
2022-09-21T07:41:20.308Z,21.40
2022-09-21T07:43:47.261Z,21.70
2022-09-21T07:46:14.590Z,22.00
2022-09-21T07:48:41.241Z,22.10
2022-09-21T07:51:09.342Z,21.90
2022-09-21T07:53:36.557Z,21.90
2022-09-21T07:56:04.517Z,22.20
2022-09-21T07:58:50.037Z,22.60
2022-09-21T08:01:17.681Z,23.10
2022-09-21T08:03:45.543Z,23.30
2022-09-21T08:06:12.374Z,23.40
2022-09-21T08:08:39.440Z,23.50
2022-09-21T08:11:06.226Z,23.40
2022-09-21T08:13:33.032Z,23.40
2022-09-21T08:16:00.967Z,23.50
2022-09-21T08:18:28.309Z,23.60
2022-09-21T08:20:59.240Z,23.90
2022-09-21T08:23:28.936Z,23.90
2022-09-21T08:26:02.845Z,24.10
2022-09-21T08:28:31.116Z,24.70
2022-09-21T08:31:01.467Z,25.50
2022-09-21T08:33:29.658Z,26.00
2022-09-21T08:35:57.716Z,26.00
2022-09-21T08:38:24.419Z,25.80
2022-09-21T08:40:51.692Z,26.10
2022-09-21T08:43:36.016Z,26.60
2022-09-21T08:46:06.458Z,27.40
2022-09-21T08:48:36.936Z,27.70
2022-09-21T08:51:06.302Z,28.20
2022-09-21T08:53:41.630Z,28.80
2022-09-21T08:56:12.896Z,29.10
2022-09-21T08:58:42.646Z,29.80
2022-09-21T09:01:24.754Z,30.40
2022-09-21T09:03:51.505Z,30.60
2022-09-21T09:06:26.755Z,30.60
2022-09-21T09:08:59.895Z,30.50
2022-09-21T09:11:45.579Z,30.40
2022-09-21T09:14:20.659Z,29.90
2022-09-21T09:16:50.080Z,29.80
2022-09-21T09:19:26.965Z,29.50
2022-09-21T09:21:55.339Z,29.90
2022-09-21T09:24:41.108Z,31.00
2022-09-21T09:27:15.357Z,31.80
2022-09-21T09:29:54.350Z,32.00
2022-09-21T09:32:24.375Z,32.50
2022-09-21T09:34:54.603Z,33.10
2022-09-21T09:37:24.929Z,33.20
2022-09-21T09:39:54.855Z,33.40
2022-09-21T09:42:22.029Z,34.00
2022-09-21T09:44:58.166Z,34.20
2022-09-21T09:47:36.382Z,34.50
2022-09-21T09:50:11.015Z,35.10
2022-09-21T09:52:37.734Z,35.40
2022-09-21T09:55:23.421Z,35.20
2022-09-21T09:57:50.302Z,34.60
2022-09-21T10:00:20.866Z,34.20
2022-09-21T10:02:55.335Z,34.20
2022-09-21T10:05:31.356Z,34.00
2022-09-21T10:07:58.482Z,33.80
2022-09-21T10:10:40.542Z,33.80
2022-09-21T10:13:11.069Z,34.00
2022-09-21T10:15:46.081Z,34.20
2022-09-21T10:18:17.870Z,34.60
2022-09-21T10:20:53.531Z,34.70
2022-09-21T10:23:20.578Z,34.70
2022-09-21T10:25:53.386Z,34.70
2022-09-21T10:28:22.150Z,34.70
2022-09-21T10:30:49.342Z,34.90
2022-09-21T10:33:20.153Z,35.50
2022-09-21T10:35:51.526Z,36.10
2022-09-21T10:38:22.389Z,36.50
2022-09-21T10:40:50.081Z,36.30
2022-09-21T10:43:31.755Z,35.70
2022-09-21T10:46:00.389Z,36.00
2022-09-21T10:48:27.823Z,36.10
2022-09-21T10:50:55.956Z,36.00
2022-09-21T10:53:30.164Z,34.90
2022-09-21T10:56:14.507Z,32.70
2022-09-21T10:59:02.552Z,30.30
2022-09-21T11:01:30.250Z,27.50
2022-09-21T11:04:03.193Z,26.60
2022-09-21T11:06:31.814Z,27.70
2022-09-21T11:09:01.122Z,28.90
2022-09-21T11:11:33.928Z,30.00
2022-09-21T11:14:03.045Z,30.10
2022-09-21T11:16:29.771Z,30.30
2022-09-21T11:19:16.744Z,31.30
2022-09-21T11:21:51.513Z,31.60
2022-09-21T11:24:24.338Z,31.50
2022-09-21T11:26:54.758Z,29.80
2022-09-21T11:32:05.939Z,26.50
2022-09-21T11:34:38.695Z,25.50
2022-09-21T11:37:17.515Z,24.70
2022-09-21T11:40:03.183Z,24.00
2022-09-21T11:42:36.208Z,23.50
2022-09-21T11:45:07.239Z,22.90
2022-09-21T11:47:46.046Z,22.40
2022-09-21T11:50:31.872Z,22.10
2022-09-21T11:53:17.875Z,22.10
2022-09-21T11:56:00.907Z,22.30
2022-09-21T11:58:32.214Z,22.90
2022-09-21T12:01:12.150Z,23.50
2022-09-21T12:03:52.678Z,24.50
2022-09-21T12:06:19.398Z,26.30
2022-09-21T12:08:53.317Z,26.80
2022-09-21T12:11:34.498Z,26.10
2022-09-21T12:14:07.790Z,24.90
2022-09-21T12:16:42.111Z,23.80
2022-09-21T12:19:33.980Z,22.90
2022-09-21T12:22:06.593Z,22.00
2022-09-21T12:24:36.369Z,21.30
2022-09-21T12:27:07.211Z,20.80
2022-09-21T12:29:38.033Z,20.30
2022-09-21T12:32:07.863Z,20.00
2022-09-21T12:34:39.792Z,19.80
2022-09-21T12:37:18.982Z,19.70
2022-09-21T12:39:49.704Z,19.50
2022-09-21T12:42:49.044Z,19.30
2022-09-21T12:45:25.472Z,19.10
2022-09-21T12:48:03.946Z,19.20
2022-09-21T12:50:48.305Z,19.40
2022-09-21T12:53:19.091Z,20.70
2022-09-21T12:55:52.059Z,22.60
2022-09-21T12:58:23.498Z,23.80
2022-09-21T13:01:01.736Z,24.90
2022-09-21T13:03:37.397Z,25.50
2022-09-21T13:06:23.082Z,26.00
2022-09-21T13:11:22.080Z,26.20
2022-09-21T13:13:59.429Z,26.60
2022-09-21T13:16:27.706Z,27.30
2022-09-21T13:19:14.723Z,28.10
2022-09-21T13:21:42.394Z,28.80
2022-09-21T13:24:24.319Z,29.10
2022-09-21T13:26:52.526Z,29.30
2022-09-21T13:29:19.145Z,29.50
2022-09-21T13:31:52.216Z,29.10
2022-09-21T13:34:19.017Z,28.70
2022-09-21T13:36:45.614Z,28.80
2022-09-21T13:39:17.075Z,28.90
2022-09-21T13:42:02.297Z,28.90
2022-09-21T13:44:41.001Z,29.60
2022-09-21T13:47:08.787Z,30.40
2022-09-21T13:49:40.987Z,30.80
2022-09-21T13:52:13.759Z,30.60
2022-09-21T13:54:53.071Z,30.20
2022-09-21T13:57:34.898Z,30.10
2022-09-21T14:00:06.717Z,29.80
2022-09-21T14:02:54.747Z,29.20
2022-09-21T14:05:30.462Z,28.50
2022-09-21T14:08:17.342Z,27.70
2022-09-21T14:10:55.230Z,27.20
2022-09-21T14:13:25.514Z,26.20
2022-09-21T14:15:52.182Z,25.00
2022-09-21T14:18:20.559Z,24.00
2022-09-21T14:21:06.179Z,23.00
2022-09-21T14:23:32.850Z,22.10
2022-09-21T14:26:01.936Z,21.20
2022-09-21T14:28:34.881Z,20.60
2022-09-21T14:31:03.355Z,20.00
2022-09-21T14:33:34.177Z,19.50
2022-09-21T14:36:05.572Z,19.10
2022-09-21T14:38:37.727Z,18.70
2022-09-21T14:41:07.398Z,18.20
2022-09-21T14:43:35.373Z,18.00
2022-09-21T14:46:02.143Z,17.90
2022-09-21T14:48:50.216Z,17.90
2022-09-21T14:51:24.794Z,17.90
2022-09-21T14:53:57.404Z,17.70
2022-09-21T14:56:33.314Z,17.50
2022-09-21T14:59:20.174Z,17.30
2022-09-21T15:02:10.154Z,17.20
2022-09-21T15:04:46.337Z,17.00
2022-09-21T15:07:32.044Z,16.90
2022-09-21T15:10:17.558Z,16.90
2022-09-21T15:12:50.427Z,16.80
2022-09-21T15:15:30.100Z,16.90
2022-09-21T15:18:00.720Z,17.30
2022-09-21T15:20:28.397Z,18.00
2022-09-21T15:22:58.568Z,18.50
2022-09-21T15:25:26.722Z,18.70
2022-09-21T15:27:54.481Z,18.70
2022-09-21T15:30:26.877Z,18.40
2022-09-21T15:32:57.920Z,18.10
2022-09-21T15:35:27.692Z,18.00
2022-09-21T15:37:55.206Z,17.70
2022-09-21T15:40:23.194Z,17.40
2022-09-21T15:42:55.888Z,17.00
2022-09-21T15:45:22.980Z,17.00
2022-09-21T15:47:49.598Z,17.40
2022-09-21T15:50:17.377Z,17.90
2022-09-21T15:52:49.950Z,18.10
2022-09-21T15:55:21.269Z,18.40
2022-09-21T15:57:50.107Z,18.50
2022-09-21T16:00:17.665Z,18.70
2022-09-21T16:02:56.033Z,18.70
2022-09-21T16:05:23.458Z,18.70
2022-09-21T16:07:51.749Z,18.80
2022-09-21T16:10:39.868Z,18.80
2022-09-21T16:13:34.434Z,18.70
2022-09-21T16:16:02.648Z,18.50
2022-09-21T16:18:35.148Z,18.00
2022-09-21T16:21:08.364Z,17.70
2022-09-21T16:23:37.114Z,17.30
2022-09-21T16:26:03.837Z,16.90
2022-09-21T16:28:41.148Z,16.70
2022-09-21T16:31:24.969Z,16.40
2022-09-21T16:33:55.392Z,16.20
2022-09-21T16:36:34.198Z,16.00
2022-09-21T16:39:01.578Z,15.90
2022-09-21T16:41:48.482Z,15.70
2022-09-21T16:44:20.838Z,15.60
2022-09-21T16:46:49.861Z,15.40
2022-09-21T16:49:19.807Z,15.20
2022-09-21T16:51:47.223Z,15.10
2022-09-21T16:54:13.842Z,15.00
2022-09-21T16:56:40.970Z,14.80
2022-09-21T16:59:14.269Z,14.60
2022-09-21T17:01:40.977Z,14.40
2022-09-21T17:04:07.619Z,14.30
2022-09-21T17:06:40.143Z,14.20
2022-09-21T17:09:21.765Z,14.10
2022-09-21T17:11:51.535Z,14.00
2022-09-21T17:14:19.194Z,13.90
2022-09-21T17:16:47.865Z,13.80
2022-09-21T17:19:14.720Z,13.70
2022-09-21T17:21:41.648Z,13.60
2022-09-21T17:24:08.453Z,13.40
2022-09-21T17:26:35.320Z,13.20
2022-09-21T17:29:03.578Z,13.10
2022-09-21T17:31:31.925Z,13.00
2022-09-21T17:33:59.562Z,12.80
2022-09-21T17:36:26.251Z,12.70
2022-09-21T17:38:52.976Z,12.60
2022-09-21T17:41:22.794Z,12.50
2022-09-21T17:44:08.475Z,12.50
2022-09-21T17:46:41.310Z,12.40
2022-09-21T17:49:09.368Z,12.30
2022-09-21T17:51:54.747Z,12.30
2022-09-21T17:54:21.597Z,12.20
2022-09-21T17:56:53.414Z,12.10
2022-09-21T17:59:27.843Z,12.00
2022-09-21T18:01:59.281Z,11.90
2022-09-21T18:04:30.525Z,11.90
2022-09-21T18:06:57.293Z,11.90
2022-09-21T18:09:24.263Z,11.80
2022-09-21T18:11:57.271Z,11.80
2022-09-21T18:14:39.261Z,11.70
2022-09-21T18:17:19.344Z,11.60
2022-09-21T18:19:57.788Z,11.60
2022-09-21T18:22:34.637Z,11.50
2022-09-21T18:25:03.003Z,11.50
2022-09-21T18:27:30.455Z,11.40
2022-09-21T18:29:57.269Z,11.40
2022-09-21T18:32:32.889Z,11.40
2022-09-21T18:35:08.785Z,11.30
2022-09-21T18:37:41.516Z,11.20
2022-09-21T18:40:09.146Z,11.10
2022-09-21T18:42:42.139Z,11.10
2022-09-21T18:45:22.424Z,11.10
2022-09-21T18:47:54.904Z,11.00
2022-09-21T18:50:24.675Z,11.00
2022-09-21T18:52:58.675Z,11.00
2022-09-21T18:55:28.314Z,10.90
2022-09-21T18:57:55.949Z,10.90
2022-09-21T19:00:23.859Z,10.80
2022-09-21T19:03:15.377Z,10.80
2022-09-21T19:05:38.340Z,10.70
2022-09-21T19:08:09.236Z,10.60
2022-09-21T19:10:43.040Z,10.60
2022-09-21T19:13:30.010Z,10.50
2022-09-21T19:16:18.463Z,10.50
2022-09-21T19:18:45.385Z,10.40
2022-09-21T19:21:32.759Z,10.30
2022-09-21T19:24:03.359Z,10.30
2022-09-21T19:26:49.282Z,10.20
2022-09-21T19:29:15.927Z,10.20
2022-09-21T19:31:42.662Z,10.10
2022-09-21T19:34:14.880Z,10.10
2022-09-21T19:36:42.491Z,10.10
2022-09-21T19:39:10.498Z,10.00
2022-09-21T19:41:56.960Z,10.00
2022-09-21T19:44:31.167Z,9.90
2022-09-21T19:47:16.585Z,9.90
2022-09-21T19:49:48.247Z,9.90
2022-09-21T19:52:16.877Z,9.90
2022-09-21T19:55:02.354Z,9.90
2022-09-21T19:57:47.861Z,9.90
2022-09-21T20:00:18.929Z,9.80
2022-09-21T20:02:53.369Z,9.80
2022-09-21T20:05:23.461Z,9.80
2022-09-21T20:07:50.167Z,9.80
2022-09-21T20:10:16.804Z,9.80
2022-09-21T20:12:48.679Z,9.70
2022-09-21T20:15:22.590Z,9.70
2022-09-21T20:17:51.181Z,9.70
2022-09-21T20:20:21.111Z,9.70
2022-09-21T20:22:48.060Z,9.70
2022-09-21T20:25:32.357Z,9.70
2022-09-21T20:27:59.322Z,9.70
2022-09-21T20:30:28.334Z,9.70
2022-09-21T20:33:07.872Z,9.70
2022-09-21T20:35:34.784Z,9.70
2022-09-21T20:38:03.019Z,9.70
2022-09-21T20:40:32.665Z,9.70
2022-09-21T20:43:01.024Z,9.60
2022-09-21T20:45:28.482Z,9.60
2022-09-21T20:47:57.163Z,9.60
2022-09-21T20:50:30.291Z,9.60
2022-09-21T20:52:56.919Z,9.50
2022-09-21T20:55:24.339Z,9.50
2022-09-21T20:57:51.036Z,9.50
2022-09-21T21:00:18.225Z,9.50
2022-09-21T21:02:45.001Z,9.40
2022-09-21T21:05:11.994Z,9.40
2022-09-21T21:07:41.019Z,9.40
2022-09-21T21:10:07.773Z,9.30
2022-09-21T21:12:34.494Z,9.30
2022-09-21T21:15:01.090Z,9.30
2022-09-21T21:17:27.785Z,9.30
2022-09-21T21:19:54.370Z,9.20
2022-09-21T21:22:21.009Z,9.20
2022-09-21T21:24:47.966Z,9.20
2022-09-21T21:27:16.520Z,9.20
2022-09-21T21:29:43.994Z,9.10
2022-09-21T21:32:10.727Z,9.10
2022-09-21T21:34:38.271Z,9.10
2022-09-21T21:37:05.302Z,9.00
2022-09-21T21:39:31.948Z,9.00
2022-09-21T21:41:58.741Z,9.00
2022-09-21T21:44:25.331Z,9.00
2022-09-21T21:46:53.370Z,9.00
2022-09-21T21:49:20.669Z,9.00
2022-09-21T21:51:49.225Z,9.00
2022-09-21T21:54:16.479Z,9.00
2022-09-21T21:56:44.292Z,9.00
2022-09-21T21:59:15.425Z,9.10
2022-09-21T22:01:44.250Z,9.10
2022-09-21T22:04:11.132Z,9.10
2022-09-21T22:06:38.969Z,9.10
2022-09-21T22:09:07.170Z,9.00
2022-09-21T22:11:34.087Z,9.00
2022-09-21T22:14:01.340Z,9.00
2022-09-21T22:16:28.941Z,8.90
2022-09-21T22:18:55.962Z,8.90
2022-09-21T22:21:24.062Z,8.90
2022-09-21T22:23:55.062Z,9.00
2022-09-21T22:26:22.178Z,8.90
2022-09-21T22:28:50.665Z,8.90
2022-09-21T22:31:19.675Z,8.90
2022-09-21T22:33:46.705Z,8.90
2022-09-21T22:36:14.636Z,8.90
2022-09-21T22:38:43.117Z,8.90
2022-09-21T22:41:28.939Z,8.90
2022-09-21T22:43:56.357Z,8.90
2022-09-21T22:46:24.036Z,8.90
2022-09-21T22:48:50.743Z,8.80
2022-09-21T22:51:18.512Z,8.90
2022-09-21T22:53:45.716Z,8.90
2022-09-21T22:56:13.786Z,8.80
2022-09-21T22:58:41.858Z,8.90
2022-09-21T23:01:13.277Z,8.80
2022-09-21T23:03:40.900Z,8.80
2022-09-21T23:06:08.581Z,8.70
2022-09-21T23:08:35.470Z,8.60
2022-09-21T23:11:13.320Z,8.50
2022-09-21T23:13:40.260Z,8.50
2022-09-21T23:16:08.014Z,8.40
2022-09-21T23:18:35.020Z,8.40
2022-09-21T23:21:03.450Z,8.40
2022-09-21T23:23:30.171Z,8.30
2022-09-21T23:26:00.871Z,8.40
2022-09-21T23:28:27.543Z,8.30
2022-09-21T23:30:55.868Z,8.40
2022-09-21T23:33:22.593Z,8.30
2022-09-21T23:35:52.377Z,8.30
2022-09-21T23:38:19.078Z,8.30
2022-09-21T23:40:46.034Z,8.30
2022-09-21T23:43:12.816Z,8.30
2022-09-21T23:45:41.039Z,8.20
2022-09-21T23:48:07.723Z,8.20
2022-09-21T23:50:34.342Z,8.20
2022-09-21T23:53:01.157Z,8.20
2022-09-21T23:55:27.777Z,8.20
2022-09-21T23:57:54.561Z,8.20
